sensor_id;sensor_type;location;lat;lon;timestamp;pressure;altitude;pressure_sealevel;temperature;humidity
11682;BME280;5897;42.640;23.310;2023-06-22T00:00:51;94347.75;;;20.10;80.99
11682;BME280;5897;42.640;23.310;2023-06-22T00:03:20;94352.09;;;20.02;79.87
11682;BME280;5897;42.640;23.310;2023-06-22T00:05:48;94352.41;;;19.75;81.13
11682;BME280;5897;42.640;23.310;2023-06-22T00:08:15;94342.50;;;19.63;81.51
11682;BME280;5897;42.640;23.310;2023-06-22T00:10:42;94343.56;;;19.51;82.36
11682;BME280;5897;42.640;23.310;2023-06-22T00:13:11;94335.44;;;19.42;82.96
11682;BME280;5897;42.640;23.310;2023-06-22T00:15:39;94336.38;;;19.39;82.81
11682;BME280;5897;42.640;23.310;2023-06-22T00:18:07;94330.25;;;19.44;83.03
11682;BME280;5897;42.640;23.310;2023-06-22T00:20:34;94335.53;;;19.47;83.15
11682;BME280;5897;42.640;23.310;2023-06-22T00:23:03;94329.94;;;19.42;83.79
11682;BME280;5897;42.640;23.310;2023-06-22T00:25:34;94327.97;;;19.42;84.60
11682;BME280;5897;42.640;23.310;2023-06-22T00:28:01;94319.09;;;19.47;84.31
11682;BME280;5897;42.640;23.310;2023-06-22T00:30:30;94313.88;;;19.49;83.91
11682;BME280;5897;42.640;23.310;2023-06-22T00:32:58;94308.50;;;19.55;81.75
11682;BME280;5897;42.640;23.310;2023-06-22T00:35:25;94315.13;;;19.48;81.42
11682;BME280;5897;42.640;23.310;2023-06-22T00:37:54;94314.66;;;19.35;82.41
11682;BME280;5897;42.640;23.310;2023-06-22T00:40:26;94312.00;;;19.26;83.45
11682;BME280;5897;42.640;23.310;2023-06-22T00:42:53;94315.22;;;19.25;84.09
11682;BME280;5897;42.640;23.310;2023-06-22T00:45:20;94318.72;;;19.25;84.15
11682;BME280;5897;42.640;23.310;2023-06-22T00:47:50;94311.72;;;19.24;83.72
11682;BME280;5897;42.640;23.310;2023-06-22T00:50:20;94313.69;;;19.24;83.86
11682;BME280;5897;42.640;23.310;2023-06-22T00:52:51;94315.56;;;19.18;83.76
11682;BME280;5897;42.640;23.310;2023-06-22T00:55:18;94315.28;;;19.16;84.60
11682;BME280;5897;42.640;23.310;2023-06-22T00:57:46;94317.16;;;19.10;84.80
11682;BME280;5897;42.640;23.310;2023-06-22T01:00:13;94317.34;;;19.06;85.04
11682;BME280;5897;42.640;23.310;2023-06-22T01:02:44;94317.44;;;19.12;85.93
11682;BME280;5897;42.640;23.310;2023-06-22T01:05:13;94324.44;;;19.13;86.63
11682;BME280;5897;42.640;23.310;2023-06-22T01:07:49;94336.44;;;19.15;86.63
11682;BME280;5897;42.640;23.310;2023-06-22T01:10:24;94336.72;;;19.17;86.87
11682;BME280;5897;42.640;23.310;2023-06-22T01:12:58;94322.97;;;19.26;86.72
11682;BME280;5897;42.640;23.310;2023-06-22T01:15:30;94328.53;;;19.32;85.60
11682;BME280;5897;42.640;23.310;2023-06-22T01:17:58;94330.75;;;19.19;86.48
11682;BME280;5897;42.640;23.310;2023-06-22T01:20:27;94325.66;;;19.12;86.64
11682;BME280;5897;42.640;23.310;2023-06-22T01:23:05;94325.66;;;19.12;86.26
11682;BME280;5897;42.640;23.310;2023-06-22T01:25:37;94329.72;;;19.16;86.19
11682;BME280;5897;42.640;23.310;2023-06-22T01:28:20;94327.34;;;19.09;86.83
11682;BME280;5897;42.640;23.310;2023-06-22T01:30:51;94327.47;;;19.15;87.57
11682;BME280;5897;42.640;23.310;2023-06-22T01:33:33;94333.13;;;19.11;88.26
11682;BME280;5897;42.640;23.310;2023-06-22T01:36:01;94343.06;;;19.09;88.94
11682;BME280;5897;42.640;23.310;2023-06-22T01:38:29;94340.31;;;19.09;89.28
11682;BME280;5897;42.640;23.310;2023-06-22T01:40:57;94341.97;;;18.92;91.13
11682;BME280;5897;42.640;23.310;2023-06-22T01:43:26;94342.19;;;19.03;90.66
11682;BME280;5897;42.640;23.310;2023-06-22T01:45:55;94340.75;;;18.93;91.36
11682;BME280;5897;42.640;23.310;2023-06-22T01:48:23;94343.03;;;18.94;91.70
11682;BME280;5897;42.640;23.310;2023-06-22T01:50:51;94348.31;;;18.98;92.05
11682;BME280;5897;42.640;23.310;2023-06-22T01:53:18;94354.66;;;19.04;90.99
11682;BME280;5897;42.640;23.310;2023-06-22T01:55:46;94345.34;;;19.25;90.29
11682;BME280;5897;42.640;23.310;2023-06-22T01:58:13;94353.25;;;19.08;90.48
11682;BME280;5897;42.640;23.310;2023-06-22T02:00:44;94349.06;;;18.98;91.35
11682;BME280;5897;42.640;23.310;2023-06-22T02:03:18;94352.28;;;18.97;91.31
11682;BME280;5897;42.640;23.310;2023-06-22T02:05:49;94363.25;;;18.97;91.19
11682;BME280;5897;42.640;23.310;2023-06-22T02:08:20;94359.28;;;18.98;90.84
11682;BME280;5897;42.640;23.310;2023-06-22T02:10:48;94356.88;;;18.91;91.59
11682;BME280;5897;42.640;23.310;2023-06-22T02:13:16;94363.56;;;18.90;92.21
11682;BME280;5897;42.640;23.310;2023-06-22T02:15:44;94360.84;;;18.90;92.18
11682;BME280;5897;42.640;23.310;2023-06-22T02:18:11;94352.16;;;18.91;92.47
11682;BME280;5897;42.640;23.310;2023-06-22T02:20:40;94340.28;;;18.94;92.74
11682;BME280;5897;42.640;23.310;2023-06-22T02:23:07;94337.16;;;18.87;93.54
11682;BME280;5897;42.640;23.310;2023-06-22T02:25:34;94337.91;;;18.87;94.59
11682;BME280;5897;42.640;23.310;2023-06-22T02:28:02;94347.16;;;18.90;95.25
11682;BME280;5897;42.640;23.310;2023-06-22T02:30:29;94351.72;;;18.93;95.53
11682;BME280;5897;42.640;23.310;2023-06-22T02:32:55;94343.03;;;18.94;95.76
11682;BME280;5897;42.640;23.310;2023-06-22T02:35:25;94338.75;;;18.93;96.21
11682;BME280;5897;42.640;23.310;2023-06-22T02:37:53;94349.72;;;18.93;96.44
11682;BME280;5897;42.640;23.310;2023-06-22T02:40:20;94345.28;;;18.96;96.31
11682;BME280;5897;42.640;23.310;2023-06-22T02:42:47;94343.75;;;18.95;96.81
11682;BME280;5897;42.640;23.310;2023-06-22T02:45:14;94343.50;;;18.93;97.28
11682;BME280;5897;42.640;23.310;2023-06-22T02:47:40;94346.97;;;18.93;97.37
11682;BME280;5897;42.640;23.310;2023-06-22T02:50:08;94349.44;;;18.91;98.26
11682;BME280;5897;42.640;23.310;2023-06-22T02:52:35;94349.88;;;18.90;98.47
11682;BME280;5897;42.640;23.310;2023-06-22T02:55:03;94351.13;;;18.89;98.39
11682;BME280;5897;42.640;23.310;2023-06-22T02:57:30;94358.28;;;18.86;98.52
11682;BME280;5897;42.640;23.310;2023-06-22T02:59:57;94363.75;;;18.86;98.33
11682;BME280;5897;42.640;23.310;2023-06-22T03:02:27;94359.06;;;18.87;97.94
11682;BME280;5897;42.640;23.310;2023-06-22T03:04:53;94354.03;;;18.85;98.41
11682;BME280;5897;42.640;23.310;2023-06-22T03:07:20;94353.38;;;18.76;98.98
11682;BME280;5897;42.640;23.310;2023-06-22T03:09:47;94355.50;;;18.72;99.48
11682;BME280;5897;42.640;23.310;2023-06-22T03:12:15;94352.59;;;18.75;99.48
11682;BME280;5897;42.640;23.310;2023-06-22T03:14:41;94363.03;;;18.86;99.09
11682;BME280;5897;42.640;23.310;2023-06-22T03:17:09;94367.53;;;18.89;99.15
11682;BME280;5897;42.640;23.310;2023-06-22T03:19:36;94375.13;;;18.94;99.42
11682;BME280;5897;42.640;23.310;2023-06-22T03:22:04;94372.97;;;18.98;99.15
11682;BME280;5897;42.640;23.310;2023-06-22T03:24:30;94382.69;;;18.99;99.10
11682;BME280;5897;42.640;23.310;2023-06-22T03:26:57;94384.31;;;19.05;99.51
11682;BME280;5897;42.640;23.310;2023-06-22T03:29:25;94382.44;;;19.11;99.69
11682;BME280;5897;42.640;23.310;2023-06-22T03:31:52;94388.66;;;19.12;99.62
11682;BME280;5897;42.640;23.310;2023-06-22T03:34:19;94388.47;;;19.15;99.63
11682;BME280;5897;42.640;23.310;2023-06-22T03:36:45;94385.72;;;19.15;99.57
11682;BME280;5897;42.640;23.310;2023-06-22T03:39:12;94390.75;;;19.17;98.94
11682;BME280;5897;42.640;23.310;2023-06-22T03:41:39;94394.72;;;19.16;98.45
11682;BME280;5897;42.640;23.310;2023-06-22T03:44:06;94390.28;;;19.18;97.47
11682;BME280;5897;42.640;23.310;2023-06-22T03:46:37;94400.63;;;19.23;97.67
11682;BME280;5897;42.640;23.310;2023-06-22T03:49:04;94409.50;;;19.33;98.15
11682;BME280;5897;42.640;23.310;2023-06-22T03:51:32;94403.84;;;19.36;98.32
11682;BME280;5897;42.640;23.310;2023-06-22T03:53:59;94408.41;;;19.39;98.88
11682;BME280;5897;42.640;23.310;2023-06-22T03:56:26;94412.63;;;19.40;98.45
11682;BME280;5897;42.640;23.310;2023-06-22T03:58:53;94417.16;;;19.43;98.86
11682;BME280;5897;42.640;23.310;2023-06-22T04:01:19;94403.66;;;19.40;99.95
11682;BME280;5897;42.640;23.310;2023-06-22T04:03:47;94408.75;;;19.47;99.97
11682;BME280;5897;42.640;23.310;2023-06-22T04:06:14;94404.81;;;19.48;99.84
11682;BME280;5897;42.640;23.310;2023-06-22T04:08:41;94412.84;;;19.51;99.25
11682;BME280;5897;42.640;23.310;2023-06-22T04:11:08;94417.56;;;19.51;97.81
11682;BME280;5897;42.640;23.310;2023-06-22T04:13:35;94403.56;;;19.49;97.77
11682;BME280;5897;42.640;23.310;2023-06-22T04:16:01;94402.91;;;19.54;97.63
11682;BME280;5897;42.640;23.310;2023-06-22T04:18:29;94392.50;;;19.58;96.57
11682;BME280;5897;42.640;23.310;2023-06-22T04:20:57;94388.66;;;19.64;96.01
11682;BME280;5897;42.640;23.310;2023-06-22T04:23:24;94379.00;;;19.69;95.97
11682;BME280;5897;42.640;23.310;2023-06-22T04:25:50;94382.97;;;19.82;95.45
11682;BME280;5897;42.640;23.310;2023-06-22T04:28:17;94379.56;;;19.87;96.03
11682;BME280;5897;42.640;23.310;2023-06-22T04:30:44;94361.47;;;19.95;95.94
11682;BME280;5897;42.640;23.310;2023-06-22T04:33:13;94365.19;;;20.07;95.35
11682;BME280;5897;42.640;23.310;2023-06-22T04:35:40;94360.06;;;20.14;94.99
11682;BME280;5897;42.640;23.310;2023-06-22T04:38:09;94371.66;;;20.24;95.18
11682;BME280;5897;42.640;23.310;2023-06-22T04:40:36;94378.56;;;20.34;95.97
11682;BME280;5897;42.640;23.310;2023-06-22T04:43:03;94370.94;;;20.43;95.49
11682;BME280;5897;42.640;23.310;2023-06-22T04:45:31;94377.53;;;20.51;95.06
11682;BME280;5897;42.640;23.310;2023-06-22T04:47:58;94384.16;;;20.59;94.00
11682;BME280;5897;42.640;23.310;2023-06-22T04:50:25;94383.53;;;20.70;92.80
11682;BME280;5897;42.640;23.310;2023-06-22T04:52:51;94381.41;;;20.79;92.56
11682;BME280;5897;42.640;23.310;2023-06-22T04:55:20;94384.97;;;20.85;93.61
11682;BME280;5897;42.640;23.310;2023-06-22T04:57:47;94385.59;;;20.95;95.85
11682;BME280;5897;42.640;23.310;2023-06-22T05:00:15;94393.38;;;20.96;96.75
11682;BME280;5897;42.640;23.310;2023-06-22T05:02:44;94399.22;;;21.04;96.32
11682;BME280;5897;42.640;23.310;2023-06-22T05:05:11;94395.09;;;21.14;96.18
11682;BME280;5897;42.640;23.310;2023-06-22T05:07:41;94401.44;;;21.25;95.30
11682;BME280;5897;42.640;23.310;2023-06-22T05:10:09;94399.09;;;21.38;94.63
11682;BME280;5897;42.640;23.310;2023-06-22T05:12:38;94381.59;;;21.36;93.06
11682;BME280;5897;42.640;23.310;2023-06-22T05:15:06;94397.06;;;21.59;91.02
11682;BME280;5897;42.640;23.310;2023-06-22T05:17:33;94400.88;;;21.67;90.48
11682;BME280;5897;42.640;23.310;2023-06-22T05:20:00;94397.25;;;21.75;89.80
11682;BME280;5897;42.640;23.310;2023-06-22T05:22:28;94398.03;;;21.81;88.46
11682;BME280;5897;42.640;23.310;2023-06-22T05:24:55;94395.34;;;21.87;86.21
11682;BME280;5897;42.640;23.310;2023-06-22T05:27:21;94396.91;;;21.93;85.39
11682;BME280;5897;42.640;23.310;2023-06-22T05:29:50;94404.91;;;21.97;84.65
11682;BME280;5897;42.640;23.310;2023-06-22T05:32:16;94400.75;;;22.07;84.97
11682;BME280;5897;42.640;23.310;2023-06-22T05:34:44;94406.09;;;22.16;84.62
11682;BME280;5897;42.640;23.310;2023-06-22T05:37:10;94403.16;;;22.25;84.65
11682;BME280;5897;42.640;23.310;2023-06-22T05:39:38;94411.25;;;22.39;84.64
11682;BME280;5897;42.640;23.310;2023-06-22T05:42:05;94411.00;;;22.37;86.03
11682;BME280;5897;42.640;23.310;2023-06-22T05:44:32;94420.91;;;22.55;85.74
11682;BME280;5897;42.640;23.310;2023-06-22T05:47:00;94427.47;;;22.63;85.25
11682;BME280;5897;42.640;23.310;2023-06-22T05:49:28;94427.53;;;22.74;84.99
11682;BME280;5897;42.640;23.310;2023-06-22T05:51:58;94435.88;;;22.85;83.34
11682;BME280;5897;42.640;23.310;2023-06-22T05:54:25;94441.63;;;22.87;81.41
11682;BME280;5897;42.640;23.310;2023-06-22T05:56:51;94445.16;;;22.93;81.37
11682;BME280;5897;42.640;23.310;2023-06-22T05:59:18;94449.47;;;22.99;80.46
11682;BME280;5897;42.640;23.310;2023-06-22T06:01:45;94420.13;;;22.91;80.56
11682;BME280;5897;42.640;23.310;2023-06-22T06:04:16;94436.31;;;23.20;79.21
11682;BME280;5897;42.640;23.310;2023-06-22T06:06:43;94441.59;;;23.29;78.52
11682;BME280;5897;42.640;23.310;2023-06-22T06:09:10;94429.09;;;23.39;78.31
11682;BME280;5897;42.640;23.310;2023-06-22T06:11:37;94429.16;;;23.50;78.80
11682;BME280;5897;42.640;23.310;2023-06-22T06:14:04;94421.88;;;23.52;78.69
11682;BME280;5897;42.640;23.310;2023-06-22T06:16:31;94422.94;;;23.66;78.18
11682;BME280;5897;42.640;23.310;2023-06-22T06:18:58;94420.41;;;23.68;77.13
11682;BME280;5897;42.640;23.310;2023-06-22T06:21:26;94416.16;;;23.78;76.33
11682;BME280;5897;42.640;23.310;2023-06-22T06:23:52;94413.66;;;23.80;76.59
11682;BME280;5897;42.640;23.310;2023-06-22T06:26:19;94418.22;;;23.94;76.89
11682;BME280;5897;42.640;23.310;2023-06-22T06:28:56;94411.47;;;24.00;77.25
11682;BME280;5897;42.640;23.310;2023-06-22T06:31:22;94415.75;;;24.12;76.57
11682;BME280;5897;42.640;23.310;2023-06-22T06:33:49;94427.03;;;24.25;76.23
11682;BME280;5897;42.640;23.310;2023-06-22T06:36:16;94421.75;;;24.38;75.63
11682;BME280;5897;42.640;23.310;2023-06-22T06:38:45;94431.03;;;24.41;75.84
11682;BME280;5897;42.640;23.310;2023-06-22T06:41:12;94414.19;;;24.55;75.37
11682;BME280;5897;42.640;23.310;2023-06-22T06:43:39;94412.22;;;24.67;73.46
11682;BME280;5897;42.640;23.310;2023-06-22T06:46:07;94411.47;;;24.39;72.43
11682;BME280;5897;42.640;23.310;2023-06-22T06:48:34;94415.22;;;24.47;73.73
11682;BME280;5897;42.640;23.310;2023-06-22T06:51:01;94405.41;;;24.68;73.00
11682;BME280;5897;42.640;23.310;2023-06-22T06:53:27;94398.38;;;24.72;74.67
11682;BME280;5897;42.640;23.310;2023-06-22T06:55:56;94395.09;;;24.79;74.88
11682;BME280;5897;42.640;23.310;2023-06-22T06:58:23;94397.81;;;24.96;75.31
11682;BME280;5897;42.640;23.310;2023-06-22T07:00:49;94405.31;;;25.12;73.29
11682;BME280;5897;42.640;23.310;2023-06-22T07:03:16;94387.91;;;25.28;74.03
11682;BME280;5897;42.640;23.310;2023-06-22T07:05:43;94392.91;;;25.75;73.93
11682;BME280;5897;42.640;23.310;2023-06-22T07:08:09;94392.34;;;25.88;72.14
11682;BME280;5897;42.640;23.310;2023-06-22T07:10:36;94398.09;;;25.90;72.13
11682;BME280;5897;42.640;23.310;2023-06-22T07:13:05;94395.69;;;26.16;72.74
11682;BME280;5897;42.640;23.310;2023-06-22T07:15:31;94398.38;;;26.27;70.68
11682;BME280;5897;42.640;23.310;2023-06-22T07:17:58;94394.38;;;26.52;70.11
11682;BME280;5897;42.640;23.310;2023-06-22T07:20:25;94398.81;;;26.66;68.75
11682;BME280;5897;42.640;23.310;2023-06-22T07:22:52;94399.84;;;26.63;69.28
11682;BME280;5897;42.640;23.310;2023-06-22T07:25:19;94406.59;;;26.67;68.58
11682;BME280;5897;42.640;23.310;2023-06-22T07:27:55;94402.22;;;26.77;67.08
11682;BME280;5897;42.640;23.310;2023-06-22T07:30:24;94399.31;;;26.88;67.67
11682;BME280;5897;42.640;23.310;2023-06-22T07:32:51;94394.72;;;26.96;66.66
11682;BME280;5897;42.640;23.310;2023-06-22T07:35:18;94397.88;;;27.06;65.96
11682;BME280;5897;42.640;23.310;2023-06-22T07:37:44;94401.00;;;27.21;65.34
11682;BME280;5897;42.640;23.310;2023-06-22T07:40:12;94404.28;;;26.95;66.61
11682;BME280;5897;42.640;23.310;2023-06-22T07:42:39;94405.81;;;27.15;66.53
11682;BME280;5897;42.640;23.310;2023-06-22T07:45:07;94409.03;;;27.24;66.71
11682;BME280;5897;42.640;23.310;2023-06-22T07:47:35;94410.94;;;27.35;66.62
11682;BME280;5897;42.640;23.310;2023-06-22T07:50:05;94409.66;;;27.54;66.78
11682;BME280;5897;42.640;23.310;2023-06-22T07:52:33;94401.66;;;27.51;63.36
11682;BME280;5897;42.640;23.310;2023-06-22T07:54:59;94406.03;;;27.83;65.65
11682;BME280;5897;42.640;23.310;2023-06-22T07:57:27;94404.13;;;27.91;64.54
11682;BME280;5897;42.640;23.310;2023-06-22T07:59:58;94405.03;;;27.81;62.10
11682;BME280;5897;42.640;23.310;2023-06-22T08:02:25;94407.09;;;28.12;62.41
11682;BME280;5897;42.640;23.310;2023-06-22T08:04:53;94405.72;;;28.37;61.48
11682;BME280;5897;42.640;23.310;2023-06-22T08:07:20;94398.25;;;28.45;61.09
11682;BME280;5897;42.640;23.310;2023-06-22T08:09:48;94401.50;;;28.30;61.58
11682;BME280;5897;42.640;23.310;2023-06-22T08:12:15;94389.28;;;28.39;58.98
11682;BME280;5897;42.640;23.310;2023-06-22T08:14:43;94393.34;;;28.51;59.80
11682;BME280;5897;42.640;23.310;2023-06-22T08:17:11;94384.19;;;28.56;55.41
11682;BME280;5897;42.640;23.310;2023-06-22T08:19:39;94381.59;;;28.26;58.88
11682;BME280;5897;42.640;23.310;2023-06-22T08:22:07;94385.25;;;28.21;57.27
11682;BME280;5897;42.640;23.310;2023-06-22T08:24:34;94383.06;;;28.46;57.07
11682;BME280;5897;42.640;23.310;2023-06-22T08:27:01;94382.97;;;28.38;61.06
11682;BME280;5897;42.640;23.310;2023-06-22T08:29:27;94373.91;;;28.51;61.55
11682;BME280;5897;42.640;23.310;2023-06-22T08:31:54;94379.91;;;28.68;59.46
11682;BME280;5897;42.640;23.310;2023-06-22T08:34:21;94363.56;;;28.64;57.62
11682;BME280;5897;42.640;23.310;2023-06-22T08:36:48;94379.91;;;28.68;58.41
11682;BME280;5897;42.640;23.310;2023-06-22T08:39:19;94379.78;;;28.60;60.36
11682;BME280;5897;42.640;23.310;2023-06-22T08:41:46;94377.25;;;28.62;59.46
11682;BME280;5897;42.640;23.310;2023-06-22T08:44:13;94379.50;;;28.77;59.41
11682;BME280;5897;42.640;23.310;2023-06-22T08:46:40;94385.34;;;28.60;61.15
11682;BME280;5897;42.640;23.310;2023-06-22T08:49:07;94379.19;;;28.67;59.97
11682;BME280;5897;42.640;23.310;2023-06-22T08:51:35;94387.22;;;28.71;62.94
11682;BME280;5897;42.640;23.310;2023-06-22T08:54:01;94380.38;;;28.85;63.18
11682;BME280;5897;42.640;23.310;2023-06-22T08:56:29;94379.50;;;28.90;61.26
11682;BME280;5897;42.640;23.310;2023-06-22T08:58:56;94371.63;;;29.20;56.92
11682;BME280;5897;42.640;23.310;2023-06-22T09:01:23;94376.53;;;29.40;53.66
11682;BME280;5897;42.640;23.310;2023-06-22T09:03:50;94371.59;;;29.46;55.47
11682;BME280;5897;42.640;23.310;2023-06-22T09:06:20;94362.16;;;29.49;54.91
11682;BME280;5897;42.640;23.310;2023-06-22T09:08:47;94361.44;;;29.35;47.82
11682;BME280;5897;42.640;23.310;2023-06-22T09:11:14;94355.22;;;29.55;49.14
11682;BME280;5897;42.640;23.310;2023-06-22T09:13:42;94354.38;;;29.81;52.06
11682;BME280;5897;42.640;23.310;2023-06-22T09:16:10;94352.31;;;29.94;51.04
11682;BME280;5897;42.640;23.310;2023-06-22T09:18:37;94366.22;;;29.94;50.27
11682;BME280;5897;42.640;23.310;2023-06-22T09:21:03;94361.28;;;30.00;49.90
11682;BME280;5897;42.640;23.310;2023-06-22T09:23:30;94361.31;;;30.21;50.48
11682;BME280;5897;42.640;23.310;2023-06-22T09:25:57;94358.53;;;30.41;52.73
11682;BME280;5897;42.640;23.310;2023-06-22T09:28:24;94354.72;;;30.52;52.43
11682;BME280;5897;42.640;23.310;2023-06-22T09:30:52;94361.09;;;30.60;48.11
11682;BME280;5897;42.640;23.310;2023-06-22T09:33:23;94362.81;;;30.63;48.90
11682;BME280;5897;42.640;23.310;2023-06-22T09:35:50;94357.72;;;30.54;47.64
11682;BME280;5897;42.640;23.310;2023-06-22T09:38:17;94374.69;;;30.84;48.32
11682;BME280;5897;42.640;23.310;2023-06-22T09:40:43;94376.00;;;31.11;47.79
11682;BME280;5897;42.640;23.310;2023-06-22T09:43:11;94375.19;;;31.31;48.20
11682;BME280;5897;42.640;23.310;2023-06-22T09:45:37;94367.09;;;31.48;43.50
11682;BME280;5897;42.640;23.310;2023-06-22T09:48:05;94372.19;;;31.21;47.88
11682;BME280;5897;42.640;23.310;2023-06-22T09:50:32;94367.31;;;31.50;43.95
11682;BME280;5897;42.640;23.310;2023-06-22T09:52:59;94372.41;;;31.66;43.78
11682;BME280;5897;42.640;23.310;2023-06-22T09:55:26;94368.81;;;31.94;40.75
11682;BME280;5897;42.640;23.310;2023-06-22T09:57:53;94366.53;;;31.85;42.13
11682;BME280;5897;42.640;23.310;2023-06-22T10:00:21;94350.97;;;32.12;41.92
11682;BME280;5897;42.640;23.310;2023-06-22T10:02:48;94351.88;;;32.22;41.77
11682;BME280;5897;42.640;23.310;2023-06-22T10:05:17;94354.75;;;32.37;39.66
11682;BME280;5897;42.640;23.310;2023-06-22T10:07:44;94354.56;;;32.65;40.84
11682;BME280;5897;42.640;23.310;2023-06-22T10:10:11;94348.22;;;32.42;39.88
11682;BME280;5897;42.640;23.310;2023-06-22T10:12:41;94350.47;;;32.51;37.89
11682;BME280;5897;42.640;23.310;2023-06-22T10:15:09;94351.97;;;32.52;35.21
11682;BME280;5897;42.640;23.310;2023-06-22T10:17:36;94352.50;;;32.35;37.71
11682;BME280;5897;42.640;23.310;2023-06-22T10:20:04;94348.41;;;32.29;38.20
11682;BME280;5897;42.640;23.310;2023-06-22T10:22:38;94351.94;;;32.37;37.45
11682;BME280;5897;42.640;23.310;2023-06-22T10:25:06;94350.03;;;32.24;36.27
11682;BME280;5897;42.640;23.310;2023-06-22T10:27:33;94344.09;;;32.35;37.12
11682;BME280;5897;42.640;23.310;2023-06-22T10:29:59;94343.56;;;32.44;35.84
11682;BME280;5897;42.640;23.310;2023-06-22T10:32:26;94342.25;;;32.38;35.08
11682;BME280;5897;42.640;23.310;2023-06-22T10:34:53;94328.47;;;32.40;34.65
11682;BME280;5897;42.640;23.310;2023-06-22T10:37:20;94336.63;;;32.23;37.95
11682;BME280;5897;42.640;23.310;2023-06-22T10:39:48;94330.88;;;32.51;38.77
11682;BME280;5897;42.640;23.310;2023-06-22T10:42:17;94324.19;;;32.76;38.39
11682;BME280;5897;42.640;23.310;2023-06-22T10:44:43;94327.66;;;33.07;38.50
11682;BME280;5897;42.640;23.310;2023-06-22T10:47:10;94326.69;;;33.34;38.50
11682;BME280;5897;42.640;23.310;2023-06-22T10:49:37;94321.44;;;33.38;38.08
11682;BME280;5897;42.640;23.310;2023-06-22T10:52:06;94323.09;;;33.49;36.67
11682;BME280;5897;42.640;23.310;2023-06-22T10:54:38;94317.28;;;33.47;34.75
11682;BME280;5897;42.640;23.310;2023-06-22T10:57:09;94322.38;;;33.88;33.42
11682;BME280;5897;42.640;23.310;2023-06-22T10:59:36;94310.44;;;34.12;33.52
11682;BME280;5897;42.640;23.310;2023-06-22T11:02:03;94320.78;;;34.34;34.18
11682;BME280;5897;42.640;23.310;2023-06-22T11:04:32;94317.69;;;34.47;31.89
11682;BME280;5897;42.640;23.310;2023-06-22T11:06:59;94313.16;;;34.51;32.24
11682;BME280;5897;42.640;23.310;2023-06-22T11:09:26;94312.38;;;34.58;31.55
11682;BME280;5897;42.640;23.310;2023-06-22T11:11:53;94316.13;;;34.78;32.42
11682;BME280;5897;42.640;23.310;2023-06-22T11:14:21;94303.81;;;34.73;32.68
11682;BME280;5897;42.640;23.310;2023-06-22T11:16:48;94309.88;;;34.87;31.88
11682;BME280;5897;42.640;23.310;2023-06-22T11:19:15;94306.44;;;34.96;33.89
11682;BME280;5897;42.640;23.310;2023-06-22T11:21:42;94300.38;;;34.82;31.58
11682;BME280;5897;42.640;23.310;2023-06-22T11:24:08;94296.50;;;34.95;32.34
11682;BME280;5897;42.640;23.310;2023-06-22T11:26:35;94290.16;;;35.11;32.99
11682;BME280;5897;42.640;23.310;2023-06-22T11:29:02;94298.50;;;35.02;31.67
11682;BME280;5897;42.640;23.310;2023-06-22T11:31:32;94280.16;;;34.84;32.23
11682;BME280;5897;42.640;23.310;2023-06-22T11:33:59;94297.94;;;34.62;32.67
11682;BME280;5897;42.640;23.310;2023-06-22T11:36:26;94290.31;;;35.13;32.54
11682;BME280;5897;42.640;23.310;2023-06-22T11:38:54;94288.41;;;34.99;32.31
11682;BME280;5897;42.640;23.310;2023-06-22T11:41:20;94284.22;;;34.66;32.11
11682;BME280;5897;42.640;23.310;2023-06-22T11:43:47;94289.84;;;34.17;32.26
11682;BME280;5897;42.640;23.310;2023-06-22T11:46:14;94286.56;;;33.64;32.51
11682;BME280;5897;42.640;23.310;2023-06-22T11:48:42;94282.75;;;33.44;33.68
11682;BME280;5897;42.640;23.310;2023-06-22T11:51:09;94283.59;;;33.15;35.30
11682;BME280;5897;42.640;23.310;2023-06-22T11:53:36;94273.38;;;32.95;36.22
11682;BME280;5897;42.640;23.310;2023-06-22T11:56:03;94274.16;;;32.80;35.52
11682;BME280;5897;42.640;23.310;2023-06-22T11:58:30;94279.00;;;32.65;36.61
11682;BME280;5897;42.640;23.310;2023-06-22T12:00:56;94280.34;;;32.49;37.45
11682;BME280;5897;42.640;23.310;2023-06-22T12:03:23;94280.72;;;32.38;37.33
11682;BME280;5897;42.640;23.310;2023-06-22T12:05:51;94282.19;;;32.24;37.94
11682;BME280;5897;42.640;23.310;2023-06-22T12:08:19;94284.56;;;32.05;39.50
11682;BME280;5897;42.640;23.310;2023-06-22T12:10:45;94282.25;;;31.58;40.23
11682;BME280;5897;42.640;23.310;2023-06-22T12:13:12;94283.44;;;30.99;41.33
11682;BME280;5897;42.640;23.310;2023-06-22T12:15:39;94290.63;;;30.59;43.50
11682;BME280;5897;42.640;23.310;2023-06-22T12:18:05;94296.06;;;30.16;43.13
11682;BME280;5897;42.640;23.310;2023-06-22T12:20:33;94293.03;;;29.73;45.74
11682;BME280;5897;42.640;23.310;2023-06-22T12:23:02;94293.44;;;29.44;48.22
11682;BME280;5897;42.640;23.310;2023-06-22T12:25:28;94295.31;;;29.15;48.39
11682;BME280;5897;42.640;23.310;2023-06-22T12:27:55;94289.22;;;28.78;50.13
11682;BME280;5897;42.640;23.310;2023-06-22T12:30:22;94286.47;;;28.65;52.94
11682;BME280;5897;42.640;23.310;2023-06-22T12:32:49;94286.97;;;28.37;55.59
11682;BME280;5897;42.640;23.310;2023-06-22T12:35:16;94300.28;;;28.26;56.78
11682;BME280;5897;42.640;23.310;2023-06-22T12:37:43;94317.19;;;27.96;60.04
11682;BME280;5897;42.640;23.310;2023-06-22T12:40:12;94321.84;;;27.38;62.94
11682;BME280;5897;42.640;23.310;2023-06-22T12:42:39;94322.97;;;27.30;64.82
11682;BME280;5897;42.640;23.310;2023-06-22T12:45:07;94312.59;;;26.69;67.18
11682;BME280;5897;42.640;23.310;2023-06-22T12:47:34;94322.69;;;26.13;68.09
11682;BME280;5897;42.640;23.310;2023-06-22T12:50:01;94315.06;;;25.55;70.71
11682;BME280;5897;42.640;23.310;2023-06-22T12:52:29;94314.69;;;25.40;72.39
11682;BME280;5897;42.640;23.310;2023-06-22T12:54:56;94339.47;;;25.05;76.65
11682;BME280;5897;42.640;23.310;2023-06-22T12:57:24;94344.19;;;25.15;72.66
11682;BME280;5897;42.640;23.310;2023-06-22T12:59:51;94344.97;;;25.05;78.13
11682;BME280;5897;42.640;23.310;2023-06-22T13:02:18;94346.56;;;24.95;85.13